sensor_id;sensor_type;location;lat;lon;timestamp;P1;durP1;ratioP1;P2;durP2;ratioP2
14740;SDS011;7462;53.530;9.414;2023-06-14T00:02:17;5.60;;;3.00;;
14740;SDS011;7462;53.530;9.414;2023-06-14T00:04:45;5.13;;;3.10;;
14740;SDS011;7462;53.530;9.414;2023-06-14T00:07:16;6.73;;;3.30;;
14740;SDS011;7462;53.530;9.414;2023-06-14T00:09:45;5.23;;;2.90;;
14740;SDS011;7462;53.530;9.414;2023-06-14T00:12:13;5.67;;;3.00;;
14740;SDS011;7462;53.530;9.414;2023-06-14T00:14:41;4.80;;;2.63;;
14740;SDS011;7462;53.530;9.414;2023-06-14T00:17:09;5.00;;;2.37;;
14740;SDS011;7462;53.530;9.414;2023-06-14T00:19:37;4.63;;;2.97;;
14740;SDS011;7462;53.530;9.414;2023-06-14T00:22:06;4.60;;;2.77;;
14740;SDS011;7462;53.530;9.414;2023-06-14T00:24:36;3.77;;;2.93;;
14740;SDS011;7462;53.530;9.414;2023-06-14T00:27:04;3.77;;;2.70;;
14740;SDS011;7462;53.530;9.414;2023-06-14T00:29:33;4.77;;;2.77;;
14740;SDS011;7462;53.530;9.414;2023-06-14T00:32:03;3.90;;;2.90;;
14740;SDS011;7462;53.530;9.414;2023-06-14T00:34:32;5.57;;;2.80;;
14740;SDS011;7462;53.530;9.414;2023-06-14T00:37:00;5.07;;;3.00;;
14740;SDS011;7462;53.530;9.414;2023-06-14T00:39:28;7.97;;;2.77;;
14740;SDS011;7462;53.530;9.414;2023-06-14T00:41:57;4.83;;;2.93;;
14740;SDS011;7462;53.530;9.414;2023-06-14T00:44:26;6.73;;;2.97;;
14740;SDS011;7462;53.530;9.414;2023-06-14T00:46:54;4.57;;;2.40;;
14740;SDS011;7462;53.530;9.414;2023-06-14T00:49:23;4.00;;;2.50;;
14740;SDS011;7462;53.530;9.414;2023-06-14T00:51:52;4.33;;;2.60;;
14740;SDS011;7462;53.530;9.414;2023-06-14T00:54:20;4.87;;;2.70;;
14740;SDS011;7462;53.530;9.414;2023-06-14T00:56:48;4.17;;;2.77;;
14740;SDS011;7462;53.530;9.414;2023-06-14T00:59:19;6.30;;;2.73;;
14740;SDS011;7462;53.530;9.414;2023-06-14T01:01:47;5.03;;;2.70;;
14740;SDS011;7462;53.530;9.414;2023-06-14T01:04:15;4.87;;;2.60;;
14740;SDS011;7462;53.530;9.414;2023-06-14T01:06:46;3.63;;;2.97;;
14740;SDS011;7462;53.530;9.414;2023-06-14T01:09:22;5.70;;;2.90;;
14740;SDS011;7462;53.530;9.414;2023-06-14T01:12:00;5.83;;;2.93;;
14740;SDS011;7462;53.530;9.414;2023-06-14T01:14:36;7.57;;;3.30;;
14740;SDS011;7462;53.530;9.414;2023-06-14T01:17:05;6.73;;;3.20;;
14740;SDS011;7462;53.530;9.414;2023-06-14T01:19:41;4.23;;;2.83;;
14740;SDS011;7462;53.530;9.414;2023-06-14T01:22:13;4.53;;;3.13;;
14740;SDS011;7462;53.530;9.414;2023-06-14T01:24:42;4.37;;;3.03;;
14740;SDS011;7462;53.530;9.414;2023-06-14T01:27:11;7.97;;;3.00;;
14740;SDS011;7462;53.530;9.414;2023-06-14T01:29:42;5.83;;;3.10;;
14740;SDS011;7462;53.530;9.414;2023-06-14T01:32:14;6.17;;;3.30;;
14740;SDS011;7462;53.530;9.414;2023-06-14T01:34:42;5.70;;;3.20;;
14740;SDS011;7462;53.530;9.414;2023-06-14T01:37:10;4.87;;;3.03;;
14740;SDS011;7462;53.530;9.414;2023-06-14T01:39:39;3.63;;;3.10;;
14740;SDS011;7462;53.530;9.414;2023-06-14T01:42:10;4.97;;;2.60;;
14740;SDS011;7462;53.530;9.414;2023-06-14T01:44:40;6.50;;;3.20;;
14740;SDS011;7462;53.530;9.414;2023-06-14T01:47:10;5.53;;;3.03;;
14740;SDS011;7462;53.530;9.414;2023-06-14T01:49:40;4.90;;;3.60;;
14740;SDS011;7462;53.530;9.414;2023-06-14T01:52:08;5.90;;;3.23;;
14740;SDS011;7462;53.530;9.414;2023-06-14T01:54:36;3.50;;;3.10;;
14740;SDS011;7462;53.530;9.414;2023-06-14T01:57:08;4.97;;;3.17;;
14740;SDS011;7462;53.530;9.414;2023-06-14T01:59:38;5.00;;;3.13;;
14740;SDS011;7462;53.530;9.414;2023-06-14T02:02:06;6.73;;;3.50;;
14740;SDS011;7462;53.530;9.414;2023-06-14T02:04:34;3.87;;;3.00;;
14740;SDS011;7462;53.530;9.414;2023-06-14T02:07:02;4.80;;;3.43;;
14740;SDS011;7462;53.530;9.414;2023-06-14T02:09:30;5.17;;;3.23;;
14740;SDS011;7462;53.530;9.414;2023-06-14T02:11:58;5.00;;;3.20;;
14740;SDS011;7462;53.530;9.414;2023-06-14T02:14:26;5.63;;;3.30;;
14740;SDS011;7462;53.530;9.414;2023-06-14T02:16:56;8.97;;;3.63;;
14740;SDS011;7462;53.530;9.414;2023-06-14T02:19:24;5.10;;;3.30;;
14740;SDS011;7462;53.530;9.414;2023-06-14T02:21:52;4.80;;;3.30;;
14740;SDS011;7462;53.530;9.414;2023-06-14T02:24:20;6.07;;;3.30;;
14740;SDS011;7462;53.530;9.414;2023-06-14T02:26:50;4.90;;;3.40;;
14740;SDS011;7462;53.530;9.414;2023-06-14T02:29:18;6.30;;;3.13;;
14740;SDS011;7462;53.530;9.414;2023-06-14T02:31:46;8.27;;;3.27;;
14740;SDS011;7462;53.530;9.414;2023-06-14T02:34:16;4.30;;;3.27;;
14740;SDS011;7462;53.530;9.414;2023-06-14T02:36:46;9.03;;;3.20;;
14740;SDS011;7462;53.530;9.414;2023-06-14T02:39:14;5.87;;;3.43;;
14740;SDS011;7462;53.530;9.414;2023-06-14T02:41:42;6.07;;;3.40;;
14740;SDS011;7462;53.530;9.414;2023-06-14T02:44:10;6.73;;;3.30;;
14740;SDS011;7462;53.530;9.414;2023-06-14T02:46:40;7.10;;;3.70;;
14740;SDS011;7462;53.530;9.414;2023-06-14T02:49:10;5.63;;;3.37;;
14740;SDS011;7462;53.530;9.414;2023-06-14T02:51:40;4.20;;;3.00;;
14740;SDS011;7462;53.530;9.414;2023-06-14T02:54:08;6.50;;;3.20;;
14740;SDS011;7462;53.530;9.414;2023-06-14T02:56:38;5.60;;;3.90;;
14740;SDS011;7462;53.530;9.414;2023-06-14T02:59:07;6.23;;;3.70;;
14740;SDS011;7462;53.530;9.414;2023-06-14T03:01:37;4.93;;;3.70;;
14740;SDS011;7462;53.530;9.414;2023-06-14T03:04:09;6.33;;;4.00;;
14740;SDS011;7462;53.530;9.414;2023-06-14T03:06:41;7.13;;;3.53;;
14740;SDS011;7462;53.530;9.414;2023-06-14T03:09:10;6.80;;;3.63;;
14740;SDS011;7462;53.530;9.414;2023-06-14T03:11:39;5.03;;;3.60;;
14740;SDS011;7462;53.530;9.414;2023-06-14T03:14:07;5.33;;;3.53;;
14740;SDS011;7462;53.530;9.414;2023-06-14T03:16:36;8.00;;;3.40;;
14740;SDS011;7462;53.530;9.414;2023-06-14T03:19:07;6.73;;;3.50;;
14740;SDS011;7462;53.530;9.414;2023-06-14T03:21:35;5.47;;;3.90;;
14740;SDS011;7462;53.530;9.414;2023-06-14T03:24:04;8.00;;;3.77;;
14740;SDS011;7462;53.530;9.414;2023-06-14T03:26:34;4.53;;;3.40;;
14740;SDS011;7462;53.530;9.414;2023-06-14T03:29:03;6.03;;;3.77;;
14740;SDS011;7462;53.530;9.414;2023-06-14T03:31:32;4.93;;;3.17;;
14740;SDS011;7462;53.530;9.414;2023-06-14T03:34:04;6.27;;;3.43;;
14740;SDS011;7462;53.530;9.414;2023-06-14T03:36:32;5.00;;;3.57;;
14740;SDS011;7462;53.530;9.414;2023-06-14T03:39:01;4.77;;;3.50;;
14740;SDS011;7462;53.530;9.414;2023-06-14T03:41:30;6.50;;;3.80;;
14740;SDS011;7462;53.530;9.414;2023-06-14T03:43:59;5.50;;;3.50;;
14740;SDS011;7462;53.530;9.414;2023-06-14T03:46:27;6.33;;;4.07;;
14740;SDS011;7462;53.530;9.414;2023-06-14T03:48:55;5.60;;;3.80;;
14740;SDS011;7462;53.530;9.414;2023-06-14T03:51:23;6.13;;;3.67;;
14740;SDS011;7462;53.530;9.414;2023-06-14T03:53:52;5.43;;;3.80;;
14740;SDS011;7462;53.530;9.414;2023-06-14T03:56:25;5.03;;;3.90;;
14740;SDS011;7462;53.530;9.414;2023-06-14T03:58:55;5.30;;;3.60;;
14740;SDS011;7462;53.530;9.414;2023-06-14T04:01:26;7.57;;;3.87;;
14740;SDS011;7462;53.530;9.414;2023-06-14T04:03:58;5.90;;;3.70;;
14740;SDS011;7462;53.530;9.414;2023-06-14T04:06:27;4.97;;;3.37;;
14740;SDS011;7462;53.530;9.414;2023-06-14T04:08:59;5.63;;;4.03;;
14740;SDS011;7462;53.530;9.414;2023-06-14T04:11:31;5.57;;;3.77;;
14740;SDS011;7462;53.530;9.414;2023-06-14T04:14:03;8.47;;;3.97;;
14740;SDS011;7462;53.530;9.414;2023-06-14T04:16:33;5.10;;;3.70;;
14740;SDS011;7462;53.530;9.414;2023-06-14T04:19:01;7.13;;;3.67;;
14740;SDS011;7462;53.530;9.414;2023-06-14T04:21:29;4.93;;;3.67;;
14740;SDS011;7462;53.530;9.414;2023-06-14T04:23:59;7.17;;;3.83;;
14740;SDS011;7462;53.530;9.414;2023-06-14T04:26:29;5.47;;;3.73;;
14740;SDS011;7462;53.530;9.414;2023-06-14T04:29:00;5.77;;;4.00;;
14740;SDS011;7462;53.530;9.414;2023-06-14T04:31:33;6.93;;;3.93;;
14740;SDS011;7462;53.530;9.414;2023-06-14T04:34:05;7.43;;;3.93;;
14740;SDS011;7462;53.530;9.414;2023-06-14T04:36:34;6.33;;;4.13;;
14740;SDS011;7462;53.530;9.414;2023-06-14T04:39:04;8.57;;;4.43;;
14740;SDS011;7462;53.530;9.414;2023-06-14T04:41:32;6.63;;;4.00;;
14740;SDS011;7462;53.530;9.414;2023-06-14T04:44:01;5.33;;;4.07;;
14740;SDS011;7462;53.530;9.414;2023-06-14T04:46:37;7.37;;;3.90;;
14740;SDS011;7462;53.530;9.414;2023-06-14T04:49:15;7.17;;;3.90;;
14740;SDS011;7462;53.530;9.414;2023-06-14T04:51:44;5.00;;;3.97;;
14740;SDS011;7462;53.530;9.414;2023-06-14T04:54:17;4.50;;;3.80;;
14740;SDS011;7462;53.530;9.414;2023-06-14T04:56:46;7.77;;;3.73;;
14740;SDS011;7462;53.530;9.414;2023-06-14T04:59:15;7.87;;;3.93;;
14740;SDS011;7462;53.530;9.414;2023-06-14T05:01:45;5.73;;;3.93;;
14740;SDS011;7462;53.530;9.414;2023-06-14T05:04:14;11.63;;;4.20;;
14740;SDS011;7462;53.530;9.414;2023-06-14T05:06:43;5.07;;;4.00;;
14740;SDS011;7462;53.530;9.414;2023-06-14T05:09:11;7.27;;;4.10;;
14740;SDS011;7462;53.530;9.414;2023-06-14T05:11:41;5.70;;;3.70;;
14740;SDS011;7462;53.530;9.414;2023-06-14T05:14:11;6.00;;;3.50;;
14740;SDS011;7462;53.530;9.414;2023-06-14T05:16:39;5.53;;;3.90;;
14740;SDS011;7462;53.530;9.414;2023-06-14T05:19:09;5.13;;;3.60;;
14740;SDS011;7462;53.530;9.414;2023-06-14T05:21:37;4.70;;;3.30;;
14740;SDS011;7462;53.530;9.414;2023-06-14T05:24:09;4.73;;;3.23;;
14740;SDS011;7462;53.530;9.414;2023-06-14T05:26:37;6.80;;;3.50;;
14740;SDS011;7462;53.530;9.414;2023-06-14T05:29:06;6.93;;;4.20;;
14740;SDS011;7462;53.530;9.414;2023-06-14T05:31:34;7.13;;;3.63;;
14740;SDS011;7462;53.530;9.414;2023-06-14T05:34:02;7.67;;;4.13;;
14740;SDS011;7462;53.530;9.414;2023-06-14T05:36:31;5.53;;;4.07;;
14740;SDS011;7462;53.530;9.414;2023-06-14T05:38:59;6.97;;;3.57;;
14740;SDS011;7462;53.530;9.414;2023-06-14T05:41:29;7.80;;;3.90;;
14740;SDS011;7462;53.530;9.414;2023-06-14T05:43:57;8.87;;;4.30;;
14740;SDS011;7462;53.530;9.414;2023-06-14T05:46:26;8.83;;;4.37;;
14740;SDS011;7462;53.530;9.414;2023-06-14T05:48:55;7.77;;;4.00;;
14740;SDS011;7462;53.530;9.414;2023-06-14T05:51:23;9.87;;;4.30;;
14740;SDS011;7462;53.530;9.414;2023-06-14T05:53:54;6.40;;;3.90;;
14740;SDS011;7462;53.530;9.414;2023-06-14T05:56:23;5.67;;;3.63;;
14740;SDS011;7462;53.530;9.414;2023-06-14T05:58:51;4.53;;;3.60;;
14740;SDS011;7462;53.530;9.414;2023-06-14T06:01:19;5.80;;;3.27;;
14740;SDS011;7462;53.530;9.414;2023-06-14T06:03:48;7.27;;;3.60;;
14740;SDS011;7462;53.530;9.414;2023-06-14T06:06:16;6.90;;;4.17;;
14740;SDS011;7462;53.530;9.414;2023-06-14T06:08:45;11.53;;;3.90;;
14740;SDS011;7462;53.530;9.414;2023-06-14T06:11:14;6.43;;;3.50;;
14740;SDS011;7462;53.530;9.414;2023-06-14T06:13:42;5.70;;;3.40;;
14740;SDS011;7462;53.530;9.414;2023-06-14T06:16:11;6.43;;;3.17;;
14740;SDS011;7462;53.530;9.414;2023-06-14T06:18:39;5.20;;;3.37;;
14740;SDS011;7462;53.530;9.414;2023-06-14T06:21:08;7.57;;;3.80;;
14740;SDS011;7462;53.530;9.414;2023-06-14T06:23:36;5.60;;;3.57;;
14740;SDS011;7462;53.530;9.414;2023-06-14T06:26:04;6.60;;;4.13;;
14740;SDS011;7462;53.530;9.414;2023-06-14T06:28:34;4.80;;;3.80;;
14740;SDS011;7462;53.530;9.414;2023-06-14T06:31:02;5.67;;;2.87;;
14740;SDS011;7462;53.530;9.414;2023-06-14T06:33:30;7.60;;;3.53;;
14740;SDS011;7462;53.530;9.414;2023-06-14T06:36:03;7.03;;;3.17;;
14740;SDS011;7462;53.530;9.414;2023-06-14T06:38:31;7.70;;;3.40;;
14740;SDS011;7462;53.530;9.414;2023-06-14T06:41:00;10.20;;;3.77;;
14740;SDS011;7462;53.530;9.414;2023-06-14T06:43:28;11.00;;;3.70;;
14740;SDS011;7462;53.530;9.414;2023-06-14T06:45:58;7.33;;;3.83;;
14740;SDS011;7462;53.530;9.414;2023-06-14T06:48:28;4.57;;;3.77;;
14740;SDS011;7462;53.530;9.414;2023-06-14T06:50:57;8.13;;;3.83;;
14740;SDS011;7462;53.530;9.414;2023-06-14T06:53:25;5.57;;;3.70;;
14740;SDS011;7462;53.530;9.414;2023-06-14T06:56:08;5.70;;;3.20;;
14740;SDS011;7462;53.530;9.414;2023-06-14T06:58:36;5.87;;;3.43;;
14740;SDS011;7462;53.530;9.414;2023-06-14T07:01:05;5.00;;;3.10;;
14740;SDS011;7462;53.530;9.414;2023-06-14T07:03:35;6.60;;;3.53;;
14740;SDS011;7462;53.530;9.414;2023-06-14T07:06:03;5.70;;;3.40;;
14740;SDS011;7462;53.530;9.414;2023-06-14T07:08:31;4.90;;;3.27;;
14740;SDS011;7462;53.530;9.414;2023-06-14T07:11:00;5.57;;;3.20;;
14740;SDS011;7462;53.530;9.414;2023-06-14T07:13:28;6.93;;;3.60;;
14740;SDS011;7462;53.530;9.414;2023-06-14T07:15:57;7.73;;;3.40;;
14740;SDS011;7462;53.530;9.414;2023-06-14T07:18:29;7.43;;;3.57;;
14740;SDS011;7462;53.530;9.414;2023-06-14T07:20:57;5.30;;;3.30;;
14740;SDS011;7462;53.530;9.414;2023-06-14T07:23:25;4.77;;;2.77;;
14740;SDS011;7462;53.530;9.414;2023-06-14T07:25:53;4.83;;;3.17;;
14740;SDS011;7462;53.530;9.414;2023-06-14T07:28:21;5.77;;;3.43;;
14740;SDS011;7462;53.530;9.414;2023-06-14T07:30:49;4.30;;;2.80;;
14740;SDS011;7462;53.530;9.414;2023-06-14T07:33:18;6.80;;;3.13;;
14740;SDS011;7462;53.530;9.414;2023-06-14T07:35:48;5.43;;;2.90;;
14740;SDS011;7462;53.530;9.414;2023-06-14T07:38:16;7.00;;;3.10;;
14740;SDS011;7462;53.530;9.414;2023-06-14T07:40:44;7.40;;;3.07;;
14740;SDS011;7462;53.530;9.414;2023-06-14T07:43:12;7.63;;;3.10;;
14740;SDS011;7462;53.530;9.414;2023-06-14T07:45:41;6.67;;;3.07;;
14740;SDS011;7462;53.530;9.414;2023-06-14T07:48:28;5.83;;;3.00;;
14740;SDS011;7462;53.530;9.414;2023-06-14T07:50:57;7.13;;;3.37;;
14740;SDS011;7462;53.530;9.414;2023-06-14T07:53:27;5.33;;;2.90;;
14740;SDS011;7462;53.530;9.414;2023-06-14T07:55:57;5.47;;;2.70;;
14740;SDS011;7462;53.530;9.414;2023-06-14T07:58:26;6.60;;;2.87;;
14740;SDS011;7462;53.530;9.414;2023-06-14T08:00:54;5.87;;;2.60;;
14740;SDS011;7462;53.530;9.414;2023-06-14T08:03:22;3.33;;;2.70;;
14740;SDS011;7462;53.530;9.414;2023-06-14T08:05:51;4.73;;;2.60;;
14740;SDS011;7462;53.530;9.414;2023-06-14T08:08:21;5.57;;;2.27;;
14740;SDS011;7462;53.530;9.414;2023-06-14T08:10:49;5.20;;;2.70;;
14740;SDS011;7462;53.530;9.414;2023-06-14T08:13:17;4.03;;;2.13;;
14740;SDS011;7462;53.530;9.414;2023-06-14T08:15:45;4.40;;;2.30;;
14740;SDS011;7462;53.530;9.414;2023-06-14T08:18:14;4.17;;;2.37;;
14740;SDS011;7462;53.530;9.414;2023-06-14T08:20:42;6.77;;;2.30;;
14740;SDS011;7462;53.530;9.414;2023-06-14T08:23:10;5.20;;;2.20;;
14740;SDS011;7462;53.530;9.414;2023-06-14T08:25:39;3.40;;;2.17;;
14740;SDS011;7462;53.530;9.414;2023-06-14T08:28:07;4.57;;;2.57;;
14740;SDS011;7462;53.530;9.414;2023-06-14T08:30:35;3.20;;;2.20;;
14740;SDS011;7462;53.530;9.414;2023-06-14T08:33:04;3.50;;;2.53;;
14740;SDS011;7462;53.530;9.414;2023-06-14T08:35:42;3.67;;;2.17;;
14740;SDS011;7462;53.530;9.414;2023-06-14T08:38:10;3.10;;;2.30;;
14740;SDS011;7462;53.530;9.414;2023-06-14T08:40:40;4.67;;;2.27;;
14740;SDS011;7462;53.530;9.414;2023-06-14T08:43:09;6.33;;;2.57;;
14740;SDS011;7462;53.530;9.414;2023-06-14T08:45:37;4.10;;;2.07;;
14740;SDS011;7462;53.530;9.414;2023-06-14T08:48:07;3.97;;;2.80;;
14740;SDS011;7462;53.530;9.414;2023-06-14T08:50:35;5.93;;;2.77;;
14740;SDS011;7462;53.530;9.414;2023-06-14T08:53:08;3.53;;;2.20;;
14740;SDS011;7462;53.530;9.414;2023-06-14T08:55:41;8.73;;;2.50;;
14740;SDS011;7462;53.530;9.414;2023-06-14T08:58:09;4.33;;;2.43;;
14740;SDS011;7462;53.530;9.414;2023-06-14T09:00:41;6.33;;;2.70;;
14740;SDS011;7462;53.530;9.414;2023-06-14T09:03:11;2.90;;;2.23;;
14740;SDS011;7462;53.530;9.414;2023-06-14T09:05:41;5.80;;;2.57;;
14740;SDS011;7462;53.530;9.414;2023-06-14T09:08:10;5.73;;;2.40;;
14740;SDS011;7462;53.530;9.414;2023-06-14T09:10:41;6.87;;;2.60;;
14740;SDS011;7462;53.530;9.414;2023-06-14T09:13:09;4.33;;;2.40;;
14740;SDS011;7462;53.530;9.414;2023-06-14T09:15:37;3.30;;;2.33;;
14740;SDS011;7462;53.530;9.414;2023-06-14T09:18:05;5.23;;;2.50;;
14740;SDS011;7462;53.530;9.414;2023-06-14T09:20:33;4.40;;;2.70;;
14740;SDS011;7462;53.530;9.414;2023-06-14T09:23:02;7.47;;;2.70;;
14740;SDS011;7462;53.530;9.414;2023-06-14T09:25:42;4.13;;;2.60;;
14740;SDS011;7462;53.530;9.414;2023-06-14T09:28:11;4.77;;;2.73;;
14740;SDS011;7462;53.530;9.414;2023-06-14T09:30:40;3.83;;;2.80;;
14740;SDS011;7462;53.530;9.414;2023-06-14T09:33:08;6.87;;;2.77;;
14740;SDS011;7462;53.530;9.414;2023-06-14T09:35:36;4.63;;;2.40;;
14740;SDS011;7462;53.530;9.414;2023-06-14T09:38:04;6.00;;;2.63;;
14740;SDS011;7462;53.530;9.414;2023-06-14T09:40:34;3.20;;;2.60;;
14740;SDS011;7462;53.530;9.414;2023-06-14T09:43:07;5.03;;;2.90;;
14740;SDS011;7462;53.530;9.414;2023-06-14T09:45:38;4.83;;;2.60;;
14740;SDS011;7462;53.530;9.414;2023-06-14T09:48:07;3.57;;;2.50;;
14740;SDS011;7462;53.530;9.414;2023-06-14T09:50:36;3.60;;;2.30;;
14740;SDS011;7462;53.530;9.414;2023-06-14T09:53:05;6.37;;;2.83;;
14740;SDS011;7462;53.530;9.414;2023-06-14T09:55:35;5.30;;;2.70;;
14740;SDS011;7462;53.530;9.414;2023-06-14T09:58:07;4.03;;;2.70;;
14740;SDS011;7462;53.530;9.414;2023-06-14T10:00:38;5.63;;;2.90;;
14740;SDS011;7462;53.530;9.414;2023-06-14T10:03:11;5.43;;;2.70;;
14740;SDS011;7462;53.530;9.414;2023-06-14T10:05:41;4.27;;;2.50;;
14740;SDS011;7462;53.530;9.414;2023-06-14T10:08:13;4.47;;;2.87;;
14740;SDS011;7462;53.530;9.414;2023-06-14T10:10:43;8.70;;;2.80;;
14740;SDS011;7462;53.530;9.414;2023-06-14T10:13:15;6.10;;;2.73;;
14740;SDS011;7462;53.530;9.414;2023-06-14T10:15:48;3.57;;;2.50;;
14740;SDS011;7462;53.530;9.414;2023-06-14T10:18:25;4.93;;;2.47;;
14740;SDS011;7462;53.530;9.414;2023-06-14T10:21:05;5.63;;;2.80;;
14740;SDS011;7462;53.530;9.414;2023-06-14T10:23:40;6.43;;;2.47;;
14740;SDS011;7462;53.530;9.414;2023-06-14T10:26:17;3.00;;;2.30;;
14740;SDS011;7462;53.530;9.414;2023-06-14T10:28:59;5.37;;;2.67;;
14740;SDS011;7462;53.530;9.414;2023-06-14T10:31:42;5.43;;;2.83;;
14740;SDS011;7462;53.530;9.414;2023-06-14T10:34:12;6.67;;;2.87;;
14740;SDS011;7462;53.530;9.414;2023-06-14T10:36:59;4.73;;;2.30;;
14740;SDS011;7462;53.530;9.414;2023-06-14T10:39:30;3.00;;;2.57;;
14740;SDS011;7462;53.530;9.414;2023-06-14T10:41:58;4.53;;;2.57;;
14740;SDS011;7462;53.530;9.414;2023-06-14T10:44:39;5.80;;;2.60;;
14740;SDS011;7462;53.530;9.414;2023-06-14T10:47:20;6.87;;;2.57;;
14740;SDS011;7462;53.530;9.414;2023-06-14T10:49:51;4.87;;;2.93;;
14740;SDS011;7462;53.530;9.414;2023-06-14T10:52:22;4.30;;;2.30;;
14740;SDS011;7462;53.530;9.414;2023-06-14T10:54:55;6.97;;;2.80;;
14740;SDS011;7462;53.530;9.414;2023-06-14T10:57:26;4.73;;;2.50;;
14740;SDS011;7462;53.530;9.414;2023-06-14T10:59:56;5.27;;;2.90;;
14740;SDS011;7462;53.530;9.414;2023-06-14T11:02:35;4.40;;;2.73;;
14740;SDS011;7462;53.530;9.414;2023-06-14T11:05:28;5.70;;;2.70;;
14740;SDS011;7462;53.530;9.414;2023-06-14T11:08:09;4.90;;;2.80;;
14740;SDS011;7462;53.530;9.414;2023-06-14T11:10:52;7.83;;;2.80;;
14740;SDS011;7462;53.530;9.414;2023-06-14T11:13:24;2.80;;;2.50;;
14740;SDS011;7462;53.530;9.414;2023-06-14T11:15:57;4.07;;;2.53;;
14740;SDS011;7462;53.530;9.414;2023-06-14T11:18:25;3.07;;;2.60;;
14740;SDS011;7462;53.530;9.414;2023-06-14T11:20:55;4.63;;;2.40;;
14740;SDS011;7462;53.530;9.414;2023-06-14T11:23:23;4.67;;;2.70;;
14740;SDS011;7462;53.530;9.414;2023-06-14T11:25:52;4.20;;;2.23;;
14740;SDS011;7462;53.530;9.414;2023-06-14T11:28:34;3.80;;;2.60;;
14740;SDS011;7462;53.530;9.414;2023-06-14T11:31:04;4.23;;;2.60;;
14740;SDS011;7462;53.530;9.414;2023-06-14T11:33:33;4.57;;;2.30;;
14740;SDS011;7462;53.530;9.414;2023-06-14T11:36:02;4.97;;;2.50;;
14740;SDS011;7462;53.530;9.414;2023-06-14T11:38:34;4.50;;;2.57;;
14740;SDS011;7462;53.530;9.414;2023-06-14T11:41:03;5.63;;;3.20;;
14740;SDS011;7462;53.530;9.414;2023-06-14T11:43:32;5.03;;;2.50;;
14740;SDS011;7462;53.530;9.414;2023-06-14T11:46:01;5.63;;;2.70;;
14740;SDS011;7462;53.530;9.414;2023-06-14T11:48:38;3.93;;;2.43;;
14740;SDS011;7462;53.530;9.414;2023-06-14T11:51:08;3.20;;;2.30;;
14740;SDS011;7462;53.530;9.414;2023-06-14T11:53:37;3.67;;;2.23;;
14740;SDS011;7462;53.530;9.414;2023-06-14T11:56:06;3.87;;;2.37;;
14740;SDS011;7462;53.530;9.414;2023-06-14T11:58:34;2.83;;;2.10;;
14740;SDS011;7462;53.530;9.414;2023-06-14T12:01:02;5.40;;;2.73;;
14740;SDS011;7462;53.530;9.414;2023-06-14T12:03:31;3.97;;;2.70;;
14740;SDS011;7462;53.530;9.414;2023-06-14T12:06:04;4.53;;;2.53;;
14740;SDS011;7462;53.530;9.414;2023-06-14T12:08:34;3.47;;;2.73;;
14740;SDS011;7462;53.530;9.414;2023-06-14T12:11:07;3.77;;;2.80;;
14740;SDS011;7462;53.530;9.414;2023-06-14T12:13:39;5.63;;;2.40;;
14740;SDS011;7462;53.530;9.414;2023-06-14T12:16:08;3.10;;;2.50;;
14740;SDS011;7462;53.530;9.414;2023-06-14T12:18:37;4.83;;;2.47;;
14740;SDS011;7462;53.530;9.414;2023-06-14T12:21:09;4.03;;;3.03;;
14740;SDS011;7462;53.530;9.414;2023-06-14T12:23:44;4.87;;;2.83;;
14740;SDS011;7462;53.530;9.414;2023-06-14T12:26:14;5.30;;;2.67;;
14740;SDS011;7462;53.530;9.414;2023-06-14T12:28:44;6.00;;;2.80;;
14740;SDS011;7462;53.530;9.414;2023-06-14T12:31:13;3.33;;;2.73;;
14740;SDS011;7462;53.530;9.414;2023-06-14T12:33:43;4.53;;;2.50;;
14740;SDS011;7462;53.530;9.414;2023-06-14T12:36:13;3.87;;;2.57;;
14740;SDS011;7462;53.530;9.414;2023-06-14T12:38:42;2.60;;;2.40;;
14740;SDS011;7462;53.530;9.414;2023-06-14T12:41:10;5.53;;;2.80;;
14740;SDS011;7462;53.530;9.414;2023-06-14T12:43:38;5.47;;;2.60;;
14740;SDS011;7462;53.530;9.414;2023-06-14T12:46:06;3.50;;;2.37;;
14740;SDS011;7462;53.530;9.414;2023-06-14T12:48:34;4.73;;;2.73;;
14740;SDS011;7462;53.530;9.414;2023-06-14T12:51:02;2.83;;;2.50;;
14740;SDS011;7462;53.530;9.414;2023-06-14T12:53:32;3.63;;;2.70;;
14740;SDS011;7462;53.530;9.414;2023-06-14T12:56:00;5.07;;;2.97;;
14740;SDS011;7462;53.530;9.414;2023-06-14T12:58:28;4.67;;;2.83;;
14740;SDS011;7462;53.530;9.414;2023-06-14T13:00:56;2.53;;;2.33;;
14740;SDS011;7462;53.530;9.414;2023-06-14T13:03:24;4.73;;;2.73;;
14740;SDS011;7462;53.530;9.414;2023-06-14T13:05:52;4.80;;;2.73;;
14740;SDS011;7462;53.530;9.414;2023-06-14T13:08:20;6.03;;;2.90;;
14740;SDS011;7462;53.530;9.414;2023-06-14T13:10:52;5.73;;;2.87;;
14740;SDS011;7462;53.530;9.414;2023-06-14T13:13:20;7.77;;;2.67;;
14740;SDS011;7462;53.530;9.414;2023-06-14T13:15:48;4.33;;;2.70;;
14740;SDS011;7462;53.530;9.414;2023-06-14T13:18:17;3.73;;;2.53;;
14740;SDS011;7462;53.530;9.414;2023-06-14T13:20:45;3.77;;;2.63;;
14740;SDS011;7462;53.530;9.414;2023-06-14T13:23:17;2.97;;;2.50;;
14740;SDS011;7462;53.530;9.414;2023-06-14T13:25:45;3.87;;;2.63;;
14740;SDS011;7462;53.530;9.414;2023-06-14T13:28:14;5.33;;;2.73;;
14740;SDS011;7462;53.530;9.414;2023-06-14T13:30:42;4.63;;;2.70;;
14740;SDS011;7462;53.530;9.414;2023-06-14T13:33:11;4.17;;;2.80;;
14740;SDS011;7462;53.530;9.414;2023-06-14T13:35:40;3.60;;;3.00;;
14740;SDS011;7462;53.530;9.414;2023-06-14T13:38:09;4.30;;;2.77;;
14740;SDS011;7462;53.530;9.414;2023-06-14T13:40:38;4.63;;;2.47;;
14740;SDS011;7462;53.530;9.414;2023-06-14T13:43:06;3.97;;;2.50;;
14740;SDS011;7462;53.530;9.414;2023-06-14T13:45:35;4.23;;;2.70;;
14740;SDS011;7462;53.530;9.414;2023-06-14T13:48:03;5.23;;;2.80;;
14740;SDS011;7462;53.530;9.414;2023-06-14T13:50:32;6.53;;;2.70;;
14740;SDS011;7462;53.530;9.414;2023-06-14T13:53:01;4.60;;;2.40;;
14740;SDS011;7462;53.530;9.414;2023-06-14T13:55:29;4.70;;;2.93;;
14740;SDS011;7462;53.530;9.414;2023-06-14T13:57:57;3.43;;;2.60;;
14740;SDS011;7462;53.530;9.414;2023-06-14T14:00:26;7.80;;;2.70;;
14740;SDS011;7462;53.530;9.414;2023-06-14T14:02:55;7.10;;;2.80;;
14740;SDS011;7462;53.530;9.414;2023-06-14T14:05:26;7.17;;;3.00;;
14740;SDS011;7462;53.530;9.414;2023-06-14T14:07:55;5.53;;;2.43;;
14740;SDS011;7462;53.530;9.414;2023-06-14T14:10:24;4.90;;;2.63;;
14740;SDS011;7462;53.530;9.414;2023-06-14T14:12:52;6.70;;;2.77;;
14740;SDS011;7462;53.530;9.414;2023-06-14T14:15:21;5.97;;;3.07;;
14740;SDS011;7462;53.530;9.414;2023-06-14T14:17:49;4.53;;;2.63;;
14740;SDS011;7462;53.530;9.414;2023-06-14T14:20:19;4.53;;;2.57;;
14740;SDS011;7462;53.530;9.414;2023-06-14T14:22:47;3.60;;;2.70;;
14740;SDS011;7462;53.530;9.414;2023-06-14T14:25:15;3.90;;;2.67;;
14740;SDS011;7462;53.530;9.414;2023-06-14T14:27:43;4.00;;;2.50;;
14740;SDS011;7462;53.530;9.414;2023-06-14T14:30:12;4.30;;;2.60;;
14740;SDS011;7462;53.530;9.414;2023-06-14T14:32:43;6.47;;;2.70;;
14740;SDS011;7462;53.530;9.414;2023-06-14T14:35:12;5.63;;;2.63;;
14740;SDS011;7462;53.530;9.414;2023-06-14T14:37:42;3.07;;;2.67;;
14740;SDS011;7462;53.530;9.414;2023-06-14T14:40:11;3.97;;;2.90;;
14740;SDS011;7462;53.530;9.414;2023-06-14T14:42:40;2.90;;;2.57;;
14740;SDS011;7462;53.530;9.414;2023-06-14T14:45:08;4.70;;;2.90;;
14740;SDS011;7462;53.530;9.414;2023-06-14T14:47:37;4.50;;;2.77;;
14740;SDS011;7462;53.530;9.414;2023-06-14T14:50:05;6.07;;;3.17;;
14740;SDS011;7462;53.530;9.414;2023-06-14T14:52:35;3.30;;;2.37;;
14740;SDS011;7462;53.530;9.414;2023-06-14T14:55:05;4.47;;;3.03;;
14740;SDS011;7462;53.530;9.414;2023-06-14T14:57:33;5.73;;;3.23;;
14740;SDS011;7462;53.530;9.414;2023-06-14T15:00:03;4.93;;;2.87;;
14740;SDS011;7462;53.530;9.414;2023-06-14T15:02:32;6.37;;;2.70;;
14740;SDS011;7462;53.530;9.414;2023-06-14T15:05:00;3.80;;;2.80;;
14740;SDS011;7462;53.530;9.414;2023-06-14T15:07:29;6.37;;;2.60;;
14740;SDS011;7462;53.530;9.414;2023-06-14T15:09:59;5.33;;;2.63;;
14740;SDS011;7462;53.530;9.414;2023-06-14T15:12:29;3.13;;;2.53;;
14740;SDS011;7462;53.530;9.414;2023-06-14T15:14:57;5.23;;;2.50;;
14740;SDS011;7462;53.530;9.414;2023-06-14T15:17:25;6.60;;;2.90;;